sensor_id;sensor_type;location;lat;lon;timestamp;temperature;humidity
2729;DHT22;1372;47.956;7.830;2022-08-11T00:01:59;24.40;82.90
2729;DHT22;1372;47.956;7.830;2022-08-11T00:04:35;24.30;82.00
2729;DHT22;1372;47.956;7.830;2022-08-11T00:07:06;24.20;82.10
2729;DHT22;1372;47.956;7.830;2022-08-11T00:09:55;24.30;82.20
2729;DHT22;1372;47.956;7.830;2022-08-11T00:12:24;24.30;82.80
2729;DHT22;1372;47.956;7.830;2022-08-11T00:14:58;24.40;82.00
2729;DHT22;1372;47.956;7.830;2022-08-11T00:17:30;24.20;83.80
2729;DHT22;1372;47.956;7.830;2022-08-11T00:20:05;24.20;83.50
2729;DHT22;1372;47.956;7.830;2022-08-11T00:22:42;24.20;83.50
2729;DHT22;1372;47.956;7.830;2022-08-11T00:25:37;24.20;83.60
2729;DHT22;1372;47.956;7.830;2022-08-11T00:28:25;24.20;83.30
2729;DHT22;1372;47.956;7.830;2022-08-11T00:30:59;24.20;83.00
2729;DHT22;1372;47.956;7.830;2022-08-11T00:33:38;24.20;83.50
2729;DHT22;1372;47.956;7.830;2022-08-11T00:36:14;24.20;83.00
2729;DHT22;1372;47.956;7.830;2022-08-11T00:38:50;24.20;82.00
2729;DHT22;1372;47.956;7.830;2022-08-11T00:41:29;24.20;82.20
2729;DHT22;1372;47.956;7.830;2022-08-11T00:44:26;24.20;82.90
2729;DHT22;1372;47.956;7.830;2022-08-11T00:47:08;24.20;82.80
2729;DHT22;1372;47.956;7.830;2022-08-11T00:49:54;24.10;82.60
2729;DHT22;1372;47.956;7.830;2022-08-11T00:52:58;24.10;83.30
2729;DHT22;1372;47.956;7.830;2022-08-11T00:59:21;24.10;83.20
2729;DHT22;1372;47.956;7.830;2022-08-11T01:02:47;24.10;84.00
2729;DHT22;1372;47.956;7.830;2022-08-11T01:09:19;24.00;84.00
2729;DHT22;1372;47.956;7.830;2022-08-11T01:18:57;23.90;85.00
2729;DHT22;1372;47.956;7.830;2022-08-11T01:28:52;23.80;85.50
2729;DHT22;1372;47.956;7.830;2022-08-11T01:31:59;23.80;85.50
2729;DHT22;1372;47.956;7.830;2022-08-11T01:35:19;23.90;85.60
2729;DHT22;1372;47.956;7.830;2022-08-11T01:38:24;23.80;87.00
2729;DHT22;1372;47.956;7.830;2022-08-11T01:41:25;23.80;86.20
2729;DHT22;1372;47.956;7.830;2022-08-11T01:44:40;23.70;86.50
2729;DHT22;1372;47.956;7.830;2022-08-11T01:47:44;23.80;86.70
2729;DHT22;1372;47.956;7.830;2022-08-11T01:50:56;23.60;86.90
2729;DHT22;1372;47.956;7.830;2022-08-11T01:53:38;23.50;88.10
2729;DHT22;1372;47.956;7.830;2022-08-11T01:56:25;23.40;88.60
2729;DHT22;1372;47.956;7.830;2022-08-11T02:08:41;23.40;88.90
2729;DHT22;1372;47.956;7.830;2022-08-11T02:11:22;23.50;88.80
2729;DHT22;1372;47.956;7.830;2022-08-11T02:14:05;23.50;89.10
2729;DHT22;1372;47.956;7.830;2022-08-11T02:16:50;23.40;89.00
2729;DHT22;1372;47.956;7.830;2022-08-11T02:19:33;23.50;88.30
2729;DHT22;1372;47.956;7.830;2022-08-11T02:22:30;23.50;89.30
2729;DHT22;1372;47.956;7.830;2022-08-11T02:25:27;23.40;88.70
2729;DHT22;1372;47.956;7.830;2022-08-11T02:28:10;23.40;90.00
2729;DHT22;1372;47.956;7.830;2022-08-11T02:30:50;23.40;88.20
2729;DHT22;1372;47.956;7.830;2022-08-11T02:34:11;23.40;88.90
2729;DHT22;1372;47.956;7.830;2022-08-11T02:36:54;23.40;89.10
2729;DHT22;1372;47.956;7.830;2022-08-11T02:39:39;23.40;89.00
2729;DHT22;1372;47.956;7.830;2022-08-11T02:42:18;23.40;88.50
2729;DHT22;1372;47.956;7.830;2022-08-11T02:45:13;23.40;88.60
2729;DHT22;1372;47.956;7.830;2022-08-11T02:47:54;23.40;89.20
2729;DHT22;1372;47.956;7.830;2022-08-11T02:50:51;23.40;89.40
2729;DHT22;1372;47.956;7.830;2022-08-11T02:53:35;23.40;90.10
2729;DHT22;1372;47.956;7.830;2022-08-11T02:56:11;23.40;89.30
2729;DHT22;1372;47.956;7.830;2022-08-11T02:58:51;23.40;88.90
2729;DHT22;1372;47.956;7.830;2022-08-11T03:01:44;23.30;89.00
2729;DHT22;1372;47.956;7.830;2022-08-11T03:04:21;23.30;89.10
2729;DHT22;1372;47.956;7.830;2022-08-11T03:07:11;23.30;89.10
2729;DHT22;1372;47.956;7.830;2022-08-11T03:10:02;23.30;88.60
2729;DHT22;1372;47.956;7.830;2022-08-11T03:12:43;23.30;89.30
2729;DHT22;1372;47.956;7.830;2022-08-11T03:15:42;23.30;88.20
2729;DHT22;1372;47.956;7.830;2022-08-11T03:18:42;23.30;88.60
2729;DHT22;1372;47.956;7.830;2022-08-11T03:21:21;23.30;89.20
2729;DHT22;1372;47.956;7.830;2022-08-11T03:24:02;23.20;90.00
2729;DHT22;1372;47.956;7.830;2022-08-11T03:26:42;23.20;89.60
2729;DHT22;1372;47.956;7.830;2022-08-11T03:29:31;23.20;88.90
2729;DHT22;1372;47.956;7.830;2022-08-11T03:32:08;23.20;88.90
2729;DHT22;1372;47.956;7.830;2022-08-11T03:34:47;23.20;88.40
2729;DHT22;1372;47.956;7.830;2022-08-11T03:37:29;23.20;88.40
2729;DHT22;1372;47.956;7.830;2022-08-11T03:40:35;23.20;88.50
2729;DHT22;1372;47.956;7.830;2022-08-11T03:43:54;23.20;88.90
2729;DHT22;1372;47.956;7.830;2022-08-11T03:46:46;23.10;89.00
2729;DHT22;1372;47.956;7.830;2022-08-11T03:49:40;23.10;89.10
2729;DHT22;1372;47.956;7.830;2022-08-11T03:52:25;23.10;89.10
2729;DHT22;1372;47.956;7.830;2022-08-11T03:55:09;23.10;89.10
2729;DHT22;1372;47.956;7.830;2022-08-11T03:58:29;23.10;89.40
2729;DHT22;1372;47.956;7.830;2022-08-11T04:01:45;23.00;90.00
2729;DHT22;1372;47.956;7.830;2022-08-11T04:05:19;23.00;89.60
2729;DHT22;1372;47.956;7.830;2022-08-11T04:12:17;22.60;90.40
2729;DHT22;1372;47.956;7.830;2022-08-11T04:15:14;22.40;90.50
2729;DHT22;1372;47.956;7.830;2022-08-11T04:25:46;22.20;90.80
2729;DHT22;1372;47.956;7.830;2022-08-11T04:28:48;22.10;91.40
2729;DHT22;1372;47.956;7.830;2022-08-11T04:32:03;21.80;91.60
2729;DHT22;1372;47.956;7.830;2022-08-11T04:34:54;21.50;92.10
2729;DHT22;1372;47.956;7.830;2022-08-11T04:37:48;21.30;92.20
2729;DHT22;1372;47.956;7.830;2022-08-11T04:48:18;21.00;93.50
2729;DHT22;1372;47.956;7.830;2022-08-11T04:51:39;21.00;93.60
2729;DHT22;1372;47.956;7.830;2022-08-11T04:54:49;20.90;94.00
2729;DHT22;1372;47.956;7.830;2022-08-11T04:57:50;21.10;93.40
2729;DHT22;1372;47.956;7.830;2022-08-11T05:00:55;21.20;93.40
2729;DHT22;1372;47.956;7.830;2022-08-11T05:04:48;21.20;93.20
2729;DHT22;1372;47.956;7.830;2022-08-11T05:11:38;21.30;93.40
2729;DHT22;1372;47.956;7.830;2022-08-11T05:14:35;21.30;93.10
2729;DHT22;1372;47.956;7.830;2022-08-11T05:17:33;21.30;93.50
2729;DHT22;1372;47.956;7.830;2022-08-11T05:20:47;21.20;93.70
2729;DHT22;1372;47.956;7.830;2022-08-11T05:23:39;21.30;93.70
2729;DHT22;1372;47.956;7.830;2022-08-11T05:26:38;21.40;93.30
2729;DHT22;1372;47.956;7.830;2022-08-11T05:29:52;21.50;93.30
2729;DHT22;1372;47.956;7.830;2022-08-11T05:32:45;21.50;93.20
2729;DHT22;1372;47.956;7.830;2022-08-11T05:35:42;21.60;93.00
2729;DHT22;1372;47.956;7.830;2022-08-11T05:38:33;21.90;92.70
2729;DHT22;1372;47.956;7.830;2022-08-11T05:41:22;21.90;93.10
2729;DHT22;1372;47.956;7.830;2022-08-11T05:44:10;21.90;93.30
2729;DHT22;1372;47.956;7.830;2022-08-11T05:47:07;22.20;92.00
2729;DHT22;1372;47.956;7.830;2022-08-11T05:49:54;22.30;92.10
2729;DHT22;1372;47.956;7.830;2022-08-11T05:52:45;22.40;91.30
2729;DHT22;1372;47.956;7.830;2022-08-11T05:55:38;22.50;91.60
2729;DHT22;1372;47.956;7.830;2022-08-11T05:58:33;22.50;92.00
2729;DHT22;1372;47.956;7.830;2022-08-11T06:01:09;22.40;91.70
2729;DHT22;1372;47.956;7.830;2022-08-11T06:03:43;22.40;92.70
2729;DHT22;1372;47.956;7.830;2022-08-11T06:06:31;22.30;92.40
2729;DHT22;1372;47.956;7.830;2022-08-11T06:09:01;22.40;92.10
2729;DHT22;1372;47.956;7.830;2022-08-11T06:11:37;22.50;91.40
2729;DHT22;1372;47.956;7.830;2022-08-11T06:14:11;22.60;91.30
2729;DHT22;1372;47.956;7.830;2022-08-11T06:16:46;22.60;92.00
2729;DHT22;1372;47.956;7.830;2022-08-11T06:19:19;22.60;92.20
2729;DHT22;1372;47.956;7.830;2022-08-11T06:21:50;22.50;92.40
2729;DHT22;1372;47.956;7.830;2022-08-11T06:24:22;22.40;93.10
2729;DHT22;1372;47.956;7.830;2022-08-11T06:26:52;22.30;93.40
2729;DHT22;1372;47.956;7.830;2022-08-11T06:29:46;22.30;92.40
2729;DHT22;1372;47.956;7.830;2022-08-11T06:32:26;22.40;92.90
2729;DHT22;1372;47.956;7.830;2022-08-11T06:35:16;22.50;93.10
2729;DHT22;1372;47.956;7.830;2022-08-11T06:38:03;22.30;93.00
2729;DHT22;1372;47.956;7.830;2022-08-11T06:40:45;22.30;93.40
2729;DHT22;1372;47.956;7.830;2022-08-11T06:44:14;22.30;93.10
2729;DHT22;1372;47.956;7.830;2022-08-11T06:46:47;22.30;93.70
2729;DHT22;1372;47.956;7.830;2022-08-11T06:49:21;22.40;93.50
2729;DHT22;1372;47.956;7.830;2022-08-11T06:52:15;22.30;93.20
2729;DHT22;1372;47.956;7.830;2022-08-11T06:55:08;22.30;93.50
2729;DHT22;1372;47.956;7.830;2022-08-11T06:57:59;22.40;93.50
2729;DHT22;1372;47.956;7.830;2022-08-11T07:00:47;22.20;93.70
2729;DHT22;1372;47.956;7.830;2022-08-11T07:03:18;22.20;93.80
2729;DHT22;1372;47.956;7.830;2022-08-11T07:05:50;22.30;94.00
2729;DHT22;1372;47.956;7.830;2022-08-11T07:08:39;22.30;94.00
2729;DHT22;1372;47.956;7.830;2022-08-11T07:11:59;22.30;93.40
2729;DHT22;1372;47.956;7.830;2022-08-11T07:14:50;22.30;93.30
2729;DHT22;1372;47.956;7.830;2022-08-11T07:17:43;22.30;93.10
2729;DHT22;1372;47.956;7.830;2022-08-11T07:20:16;22.30;93.30
2729;DHT22;1372;47.956;7.830;2022-08-11T07:23:08;22.30;93.50
2729;DHT22;1372;47.956;7.830;2022-08-11T07:25:58;22.40;93.30
2729;DHT22;1372;47.956;7.830;2022-08-11T07:28:47;22.40;92.80
2729;DHT22;1372;47.956;7.830;2022-08-11T07:31:47;22.40;92.70
2729;DHT22;1372;47.956;7.830;2022-08-11T07:34:23;22.40;92.80
2729;DHT22;1372;47.956;7.830;2022-08-11T07:36:57;22.50;92.60
2729;DHT22;1372;47.956;7.830;2022-08-11T07:39:31;22.50;92.80
2729;DHT22;1372;47.956;7.830;2022-08-11T07:42:05;22.60;92.60
2729;DHT22;1372;47.956;7.830;2022-08-11T07:44:36;22.60;92.80
2729;DHT22;1372;47.956;7.830;2022-08-11T07:47:26;22.60;93.20
2729;DHT22;1372;47.956;7.830;2022-08-11T07:50:14;22.70;93.40
2729;DHT22;1372;47.956;7.830;2022-08-11T07:53:21;22.90;92.30
2729;DHT22;1372;47.956;7.830;2022-08-11T07:55:53;22.90;92.20
2729;DHT22;1372;47.956;7.830;2022-08-11T07:58:26;22.90;92.70
2729;DHT22;1372;47.956;7.830;2022-08-11T08:01:22;22.90;92.40
2729;DHT22;1372;47.956;7.830;2022-08-11T08:04:11;22.90;93.10
2729;DHT22;1372;47.956;7.830;2022-08-11T08:07:00;22.90;92.80
2729;DHT22;1372;47.956;7.830;2022-08-11T08:09:52;23.00;92.90
2729;DHT22;1372;47.956;7.830;2022-08-11T08:12:41;23.10;93.20
2729;DHT22;1372;47.956;7.830;2022-08-11T08:15:29;23.20;92.50
2729;DHT22;1372;47.956;7.830;2022-08-11T08:18:36;23.30;92.80
2729;DHT22;1372;47.956;7.830;2022-08-11T08:21:05;23.30;92.70
2729;DHT22;1372;47.956;7.830;2022-08-11T08:24:05;23.40;92.80
2729;DHT22;1372;47.956;7.830;2022-08-11T08:26:34;23.50;93.10
2729;DHT22;1372;47.956;7.830;2022-08-11T08:29:24;23.50;92.80
2729;DHT22;1372;47.956;7.830;2022-08-11T08:32:16;23.60;92.50
2729;DHT22;1372;47.956;7.830;2022-08-11T08:34:51;23.70;92.80
2729;DHT22;1372;47.956;7.830;2022-08-11T08:37:23;23.90;92.30
2729;DHT22;1372;47.956;7.830;2022-08-11T08:40:17;23.90;93.00
2729;DHT22;1372;47.956;7.830;2022-08-11T08:42:48;24.00;92.20
2729;DHT22;1372;47.956;7.830;2022-08-11T08:45:22;24.00;92.40
2729;DHT22;1372;47.956;7.830;2022-08-11T08:47:58;24.00;92.80
2729;DHT22;1372;47.956;7.830;2022-08-11T08:50:33;24.10;92.90
2729;DHT22;1372;47.956;7.830;2022-08-11T08:53:23;24.20;92.70
2729;DHT22;1372;47.956;7.830;2022-08-11T08:56:00;24.30;92.50
2729;DHT22;1372;47.956;7.830;2022-08-11T08:58:49;24.30;91.80
2729;DHT22;1372;47.956;7.830;2022-08-11T09:01:42;24.50;92.00
2729;DHT22;1372;47.956;7.830;2022-08-11T09:04:17;24.60;91.50
2729;DHT22;1372;47.956;7.830;2022-08-11T09:06:47;24.70;91.80
2729;DHT22;1372;47.956;7.830;2022-08-11T09:09:19;24.70;91.40
2729;DHT22;1372;47.956;7.830;2022-08-11T09:12:09;24.80;91.70
2729;DHT22;1372;47.956;7.830;2022-08-11T09:14:40;24.80;91.50
2729;DHT22;1372;47.956;7.830;2022-08-11T09:17:34;24.80;91.70
2729;DHT22;1372;47.956;7.830;2022-08-11T09:20:07;24.90;91.40
2729;DHT22;1372;47.956;7.830;2022-08-11T09:22:41;24.90;91.20
2729;DHT22;1372;47.956;7.830;2022-08-11T09:25:50;25.00;91.60
2729;DHT22;1372;47.956;7.830;2022-08-11T09:28:41;25.10;91.90
2729;DHT22;1372;47.956;7.830;2022-08-11T09:31:12;25.20;91.70
2729;DHT22;1372;47.956;7.830;2022-08-11T09:33:43;25.30;91.10
2729;DHT22;1372;47.956;7.830;2022-08-11T09:36:14;25.40;90.90
2729;DHT22;1372;47.956;7.830;2022-08-11T09:39:04;25.40;90.60
2729;DHT22;1372;47.956;7.830;2022-08-11T09:41:51;25.40;91.30
2729;DHT22;1372;47.956;7.830;2022-08-11T09:44:22;25.40;91.20
2729;DHT22;1372;47.956;7.830;2022-08-11T09:47:09;25.50;91.00
2729;DHT22;1372;47.956;7.830;2022-08-11T09:49:43;25.60;90.10
2729;DHT22;1372;47.956;7.830;2022-08-11T09:52:14;25.60;90.40
2729;DHT22;1372;47.956;7.830;2022-08-11T09:54:46;25.80;90.60
2729;DHT22;1372;47.956;7.830;2022-08-11T09:57:38;25.90;90.30
2729;DHT22;1372;47.956;7.830;2022-08-11T10:00:28;26.00;89.90
2729;DHT22;1372;47.956;7.830;2022-08-11T10:02:58;25.90;89.20
2729;DHT22;1372;47.956;7.830;2022-08-11T10:05:29;26.00;90.20
2729;DHT22;1372;47.956;7.830;2022-08-11T10:08:20;26.10;89.50
2729;DHT22;1372;47.956;7.830;2022-08-11T10:10:50;26.20;88.70
2729;DHT22;1372;47.956;7.830;2022-08-11T10:13:22;26.40;87.30
2729;DHT22;1372;47.956;7.830;2022-08-11T10:16:10;26.40;87.70
2729;DHT22;1372;47.956;7.830;2022-08-11T10:18:45;26.40;86.40
2729;DHT22;1372;47.956;7.830;2022-08-11T10:21:25;26.50;86.60
2729;DHT22;1372;47.956;7.830;2022-08-11T10:23:58;26.50;87.90
2729;DHT22;1372;47.956;7.830;2022-08-11T10:26:47;26.70;86.30
2729;DHT22;1372;47.956;7.830;2022-08-11T10:29:30;26.90;86.80
2729;DHT22;1372;47.956;7.830;2022-08-11T10:32:38;26.90;85.10
2729;DHT22;1372;47.956;7.830;2022-08-11T10:35:46;27.00;85.60
2729;DHT22;1372;47.956;7.830;2022-08-11T10:38:17;27.00;84.10
2729;DHT22;1372;47.956;7.830;2022-08-11T10:40:48;27.10;84.60
2729;DHT22;1372;47.956;7.830;2022-08-11T10:43:39;27.20;84.10
2729;DHT22;1372;47.956;7.830;2022-08-11T10:46:27;27.30;84.00
2729;DHT22;1372;47.956;7.830;2022-08-11T10:49:14;27.40;83.60
2729;DHT22;1372;47.956;7.830;2022-08-11T10:51:43;27.40;82.90
2729;DHT22;1372;47.956;7.830;2022-08-11T10:54:31;27.60;82.30
2729;DHT22;1372;47.956;7.830;2022-08-11T10:57:20;27.70;82.60
2729;DHT22;1372;47.956;7.830;2022-08-11T11:00:09;27.70;82.30
2729;DHT22;1372;47.956;7.830;2022-08-11T11:02:42;27.70;82.00
2729;DHT22;1372;47.956;7.830;2022-08-11T11:05:14;27.80;82.00
2729;DHT22;1372;47.956;7.830;2022-08-11T11:07:57;27.90;82.80
2729;DHT22;1372;47.956;7.830;2022-08-11T11:10:50;27.90;81.30
2729;DHT22;1372;47.956;7.830;2022-08-11T11:13:23;28.00;80.80
2729;DHT22;1372;47.956;7.830;2022-08-11T11:16:07;28.10;80.90
2729;DHT22;1372;47.956;7.830;2022-08-11T11:19:26;28.20;79.60
2729;DHT22;1372;47.956;7.830;2022-08-11T11:22:16;28.10;80.00
2729;DHT22;1372;47.956;7.830;2022-08-11T11:25:10;28.30;80.70
2729;DHT22;1372;47.956;7.830;2022-08-11T11:31:05;28.50;79.50
2729;DHT22;1372;47.956;7.830;2022-08-11T11:33:57;28.60;78.10
2729;DHT22;1372;47.956;7.830;2022-08-11T11:36:44;28.80;78.20
2729;DHT22;1372;47.956;7.830;2022-08-11T11:39:35;28.90;78.50
2729;DHT22;1372;47.956;7.830;2022-08-11T11:42:08;28.90;78.10
2729;DHT22;1372;47.956;7.830;2022-08-11T11:44:43;28.90;77.50
2729;DHT22;1372;47.956;7.830;2022-08-11T11:47:14;29.00;77.60
2729;DHT22;1372;47.956;7.830;2022-08-11T11:49:48;29.10;77.10
2729;DHT22;1372;47.956;7.830;2022-08-11T11:52:20;29.30;76.70
2729;DHT22;1372;47.956;7.830;2022-08-11T11:54:51;29.40;77.30
2729;DHT22;1372;47.956;7.830;2022-08-11T11:57:30;29.40;75.50
2729;DHT22;1372;47.956;7.830;2022-08-11T12:00:34;29.40;76.20
2729;DHT22;1372;47.956;7.830;2022-08-11T12:03:21;29.50;77.40
2729;DHT22;1372;47.956;7.830;2022-08-11T12:05:52;29.50;76.40
2729;DHT22;1372;47.956;7.830;2022-08-11T12:08:22;29.60;75.70
2729;DHT22;1372;47.956;7.830;2022-08-11T12:11:14;29.80;76.10
2729;DHT22;1372;47.956;7.830;2022-08-11T12:14:05;29.80;75.60
2729;DHT22;1372;47.956;7.830;2022-08-11T12:16:58;29.80;75.00
2729;DHT22;1372;47.956;7.830;2022-08-11T12:19:27;29.80;74.80
2729;DHT22;1372;47.956;7.830;2022-08-11T12:22:02;29.90;75.40
2729;DHT22;1372;47.956;7.830;2022-08-11T12:24:48;30.00;74.70
2729;DHT22;1372;47.956;7.830;2022-08-11T12:27:40;30.10;74.90
2729;DHT22;1372;47.956;7.830;2022-08-11T12:30:10;30.10;76.20
2729;DHT22;1372;47.956;7.830;2022-08-11T12:32:43;30.20;75.20
2729;DHT22;1372;47.956;7.830;2022-08-11T12:35:14;30.10;74.70
2729;DHT22;1372;47.956;7.830;2022-08-11T12:37:46;30.10;75.90
2729;DHT22;1372;47.956;7.830;2022-08-11T12:40:37;30.20;75.10
2729;DHT22;1372;47.956;7.830;2022-08-11T12:43:46;30.30;73.80
2729;DHT22;1372;47.956;7.830;2022-08-11T12:46:52;30.20;75.20
2729;DHT22;1372;47.956;7.830;2022-08-11T12:49:24;30.30;74.70
2729;DHT22;1372;47.956;7.830;2022-08-11T12:52:18;30.30;74.50
2729;DHT22;1372;47.956;7.830;2022-08-11T12:54:57;30.50;73.50
2729;DHT22;1372;47.956;7.830;2022-08-11T12:57:30;30.50;74.30
2729;DHT22;1372;47.956;7.830;2022-08-11T13:00:18;30.70;73.20
2729;DHT22;1372;47.956;7.830;2022-08-11T13:03:07;30.70;73.90
2729;DHT22;1372;47.956;7.830;2022-08-11T13:06:05;30.90;73.20
2729;DHT22;1372;47.956;7.830;2022-08-11T13:08:36;30.90;75.00
2729;DHT22;1372;47.956;7.830;2022-08-11T13:11:08;30.90;75.00
2729;DHT22;1372;47.956;7.830;2022-08-11T13:14:14;31.00;74.80
2729;DHT22;1372;47.956;7.830;2022-08-11T13:16:44;31.20;72.60
2729;DHT22;1372;47.956;7.830;2022-08-11T13:19:32;31.20;72.40
2729;DHT22;1372;47.956;7.830;2022-08-11T13:22:03;31.10;72.10
2729;DHT22;1372;47.956;7.830;2022-08-11T13:24:35;31.00;72.50
2729;DHT22;1372;47.956;7.830;2022-08-11T13:27:04;31.00;71.70
2729;DHT22;1372;47.956;7.830;2022-08-11T13:29:34;31.00;73.20
2729;DHT22;1372;47.956;7.830;2022-08-11T13:32:03;31.00;72.10
2729;DHT22;1372;47.956;7.830;2022-08-11T13:34:51;31.10;73.30
2729;DHT22;1372;47.956;7.830;2022-08-11T13:37:22;31.30;73.60
2729;DHT22;1372;47.956;7.830;2022-08-11T13:40:12;31.30;71.50
2729;DHT22;1372;47.956;7.830;2022-08-11T13:42:48;31.40;70.90
2729;DHT22;1372;47.956;7.830;2022-08-11T13:45:18;31.40;71.70
2729;DHT22;1372;47.956;7.830;2022-08-11T13:47:51;31.60;71.50
2729;DHT22;1372;47.956;7.830;2022-08-11T13:50:26;31.80;70.10
2729;DHT22;1372;47.956;7.830;2022-08-11T13:53:12;31.80;70.20
2729;DHT22;1372;47.956;7.830;2022-08-11T13:55:44;31.90;70.20
2729;DHT22;1372;47.956;7.830;2022-08-11T13:58:19;32.00;70.60
2729;DHT22;1372;47.956;7.830;2022-08-11T14:01:06;32.10;69.10
2729;DHT22;1372;47.956;7.830;2022-08-11T14:03:44;32.00;69.90
2729;DHT22;1372;47.956;7.830;2022-08-11T14:06:38;31.90;70.30
2729;DHT22;1372;47.956;7.830;2022-08-11T14:09:11;31.80;70.00
2729;DHT22;1372;47.956;7.830;2022-08-11T14:12:07;31.80;70.40
2729;DHT22;1372;47.956;7.830;2022-08-11T14:15:00;31.80;72.50
2729;DHT22;1372;47.956;7.830;2022-08-11T14:17:38;32.00;70.30
2729;DHT22;1372;47.956;7.830;2022-08-11T14:20:16;31.90;68.60
2729;DHT22;1372;47.956;7.830;2022-08-11T14:23:08;31.90;69.50
2729;DHT22;1372;47.956;7.830;2022-08-11T14:25:41;32.10;69.50
2729;DHT22;1372;47.956;7.830;2022-08-11T14:28:44;32.40;69.60
2729;DHT22;1372;47.956;7.830;2022-08-11T14:31:37;32.60;68.90
2729;DHT22;1372;47.956;7.830;2022-08-11T14:34:09;32.50;68.00
2729;DHT22;1372;47.956;7.830;2022-08-11T14:36:43;32.60;68.00
2729;DHT22;1372;47.956;7.830;2022-08-11T14:39:15;32.60;68.20
2729;DHT22;1372;47.956;7.830;2022-08-11T14:41:49;32.60;66.90
2729;DHT22;1372;47.956;7.830;2022-08-11T14:44:42;32.50;67.50
2729;DHT22;1372;47.956;7.830;2022-08-11T14:47:32;32.40;68.00
2729;DHT22;1372;47.956;7.830;2022-08-11T14:50:03;32.50;68.10
2729;DHT22;1372;47.956;7.830;2022-08-11T14:52:42;32.60;69.40
2729;DHT22;1372;47.956;7.830;2022-08-11T14:55:14;32.60;67.00
2729;DHT22;1372;47.956;7.830;2022-08-11T14:58:03;32.60;67.50
2729;DHT22;1372;47.956;7.830;2022-08-11T15:00:35;32.80;66.70
2729;DHT22;1372;47.956;7.830;2022-08-11T15:03:07;32.80;68.10
2729;DHT22;1372;47.956;7.830;2022-08-11T15:05:45;32.80;66.80
2729;DHT22;1372;47.956;7.830;2022-08-11T15:08:26;32.80;66.30
2729;DHT22;1372;47.956;7.830;2022-08-11T15:11:16;32.70;65.30
2729;DHT22;1372;47.956;7.830;2022-08-11T15:14:09;32.70;65.70
2729;DHT22;1372;47.956;7.830;2022-08-11T15:17:01;32.60;66.00
2729;DHT22;1372;47.956;7.830;2022-08-11T15:19:36;32.70;65.20
2729;DHT22;1372;47.956;7.830;2022-08-11T15:22:34;32.70;66.30
2729;DHT22;1372;47.956;7.830;2022-08-11T15:25:23;32.90;66.60
2729;DHT22;1372;47.956;7.830;2022-08-11T15:27:59;33.10;65.10
2729;DHT22;1372;47.956;7.830;2022-08-11T15:31:06;33.10;64.80
2729;DHT22;1372;47.956;7.830;2022-08-11T15:34:06;33.10;65.50
2729;DHT22;1372;47.956;7.830;2022-08-11T15:36:59;33.10;64.40
2729;DHT22;1372;47.956;7.830;2022-08-11T15:39:52;33.00;64.50
2729;DHT22;1372;47.956;7.830;2022-08-11T15:42:57;32.80;63.20
2729;DHT22;1372;47.956;7.830;2022-08-11T15:46:02;32.80;64.50
2729;DHT22;1372;47.956;7.830;2022-08-11T15:48:43;32.80;64.50
2729;DHT22;1372;47.956;7.830;2022-08-11T15:51:39;32.70;65.00
2729;DHT22;1372;47.956;7.830;2022-08-11T15:54:13;32.70;64.70
2729;DHT22;1372;47.956;7.830;2022-08-11T15:56:52;32.70;65.40
2729;DHT22;1372;47.956;7.830;2022-08-11T15:59:28;32.70;65.10
2729;DHT22;1372;47.956;7.830;2022-08-11T16:02:33;32.70;64.90
2729;DHT22;1372;47.956;7.830;2022-08-11T16:05:22;32.60;65.10
2729;DHT22;1372;47.956;7.830;2022-08-11T16:08:16;32.70;65.00
2729;DHT22;1372;47.956;7.830;2022-08-11T16:10:53;32.50;64.60
2729;DHT22;1372;47.956;7.830;2022-08-11T16:13:28;32.50;64.80
2729;DHT22;1372;47.956;7.830;2022-08-11T16:16:18;32.40;64.70
2729;DHT22;1372;47.956;7.830;2022-08-11T16:18:52;32.30;65.10
2729;DHT22;1372;47.956;7.830;2022-08-11T16:21:25;32.30;64.30
2729;DHT22;1372;47.956;7.830;2022-08-11T16:24:04;32.30;65.00
2729;DHT22;1372;47.956;7.830;2022-08-11T16:26:40;32.30;66.00
2729;DHT22;1372;47.956;7.830;2022-08-11T16:29:31;32.30;65.60
2729;DHT22;1372;47.956;7.830;2022-08-11T16:32:05;32.20;67.40
2729;DHT22;1372;47.956;7.830;2022-08-11T16:35:10;32.20;68.30
2729;DHT22;1372;47.956;7.830;2022-08-11T16:38:02;32.10;67.00
2729;DHT22;1372;47.956;7.830;2022-08-11T16:40:51;32.00;67.60
2729;DHT22;1372;47.956;7.830;2022-08-11T16:43:44;32.00;68.80
2729;DHT22;1372;47.956;7.830;2022-08-11T16:46:32;31.90;69.10
2729;DHT22;1372;47.956;7.830;2022-08-11T16:49:27;31.80;69.00
2729;DHT22;1372;47.956;7.830;2022-08-11T16:52:03;31.70;69.00
2729;DHT22;1372;47.956;7.830;2022-08-11T16:54:39;31.60;69.70
2729;DHT22;1372;47.956;7.830;2022-08-11T16:57:14;31.50;69.90
2729;DHT22;1372;47.956;7.830;2022-08-11T17:00:05;31.40;70.40
2729;DHT22;1372;47.956;7.830;2022-08-11T17:02:50;31.20;71.10
2729;DHT22;1372;47.956;7.830;2022-08-11T17:05:46;31.10;71.30
2729;DHT22;1372;47.956;7.830;2022-08-11T17:08:44;31.10;71.30
2729;DHT22;1372;47.956;7.830;2022-08-11T17:11:38;31.00;71.50
2729;DHT22;1372;47.956;7.830;2022-08-11T17:14:35;30.90;71.80
2729;DHT22;1372;47.956;7.830;2022-08-11T17:17:11;30.70;72.30
2729;DHT22;1372;47.956;7.830;2022-08-11T17:19:47;30.60;72.40
2729;DHT22;1372;47.956;7.830;2022-08-11T17:22:40;30.60;72.30
2729;DHT22;1372;47.956;7.830;2022-08-11T17:25:31;30.40;72.70
2729;DHT22;1372;47.956;7.830;2022-08-11T17:28:24;30.30;72.50
2729;DHT22;1372;47.956;7.830;2022-08-11T17:30:55;30.30;72.20
2729;DHT22;1372;47.956;7.830;2022-08-11T17:34:08;30.30;72.70
2729;DHT22;1372;47.956;7.830;2022-08-11T17:36:57;30.20;72.00
2729;DHT22;1372;47.956;7.830;2022-08-11T17:39:30;30.20;72.70
2729;DHT22;1372;47.956;7.830;2022-08-11T17:42:07;30.20;73.80
2729;DHT22;1372;47.956;7.830;2022-08-11T17:44:57;30.10;73.20
2729;DHT22;1372;47.956;7.830;2022-08-11T17:47:46;30.00;73.90
2729;DHT22;1372;47.956;7.830;2022-08-11T17:50:35;29.90;74.20
2729;DHT22;1372;47.956;7.830;2022-08-11T17:53:10;29.80;74.10
2729;DHT22;1372;47.956;7.830;2022-08-11T17:56:19;29.60;74.30
2729;DHT22;1372;47.956;7.830;2022-08-11T17:59:12;29.50;75.00
2729;DHT22;1372;47.956;7.830;2022-08-11T18:02:04;29.40;75.30
2729;DHT22;1372;47.956;7.830;2022-08-11T18:04:50;29.30;75.40
2729;DHT22;1372;47.956;7.830;2022-08-11T18:07:22;29.20;75.90
2729;DHT22;1372;47.956;7.830;2022-08-11T18:10:30;29.10;76.10
2729;DHT22;1372;47.956;7.830;2022-08-11T18:13:22;29.00;76.50
2729;DHT22;1372;47.956;7.830;2022-08-11T18:16:12;28.70;77.60
2729;DHT22;1372;47.956;7.830;2022-08-11T18:18:59;28.70;78.20
2729;DHT22;1372;47.956;7.830;2022-08-11T18:21:46;28.50;78.20
2729;DHT22;1372;47.956;7.830;2022-08-11T18:24:47;28.50;77.80
2729;DHT22;1372;47.956;7.830;2022-08-11T18:27:39;28.40;78.80
2729;DHT22;1372;47.956;7.830;2022-08-11T18:30:32;28.30;78.40
2729;DHT22;1372;47.956;7.830;2022-08-11T18:33:36;28.30;79.20
2729;DHT22;1372;47.956;7.830;2022-08-11T18:36:43;28.30;79.40
2729;DHT22;1372;47.956;7.830;2022-08-11T18:39:33;28.20;79.00
2729;DHT22;1372;47.956;7.830;2022-08-11T18:42:22;28.20;79.40
2729;DHT22;1372;47.956;7.830;2022-08-11T18:45:11;28.10;79.40
2729;DHT22;1372;47.956;7.830;2022-08-11T18:48:10;28.10;80.00
2729;DHT22;1372;47.956;7.830;2022-08-11T18:51:02;28.10;80.00
2729;DHT22;1372;47.956;7.830;2022-08-11T18:54:02;28.00;80.60
2729;DHT22;1372;47.956;7.830;2022-08-11T18:56:53;27.80;81.30
2729;DHT22;1372;47.956;7.830;2022-08-11T18:59:43;27.70;81.30
2729;DHT22;1372;47.956;7.830;2022-08-11T19:02:31;27.60;81.60
2729;DHT22;1372;47.956;7.830;2022-08-11T19:05:21;27.60;82.10